createdAt,value
2023-04-16T00:00:38.597Z,82.30
2023-04-16T00:03:05.440Z,82.06
2023-04-16T00:05:32.040Z,81.79
2023-04-16T00:07:58.529Z,81.96
2023-04-16T00:10:25.009Z,82.16
2023-04-16T00:12:51.451Z,81.60
2023-04-16T00:15:17.896Z,81.26
2023-04-16T00:17:44.394Z,81.75
2023-04-16T00:20:11.510Z,82.05
2023-04-16T00:22:37.981Z,81.94
2023-04-16T00:25:04.839Z,81.86
2023-04-16T00:27:31.260Z,81.75
2023-04-16T00:29:57.789Z,81.75
2023-04-16T00:32:24.345Z,81.71
2023-04-16T00:34:50.923Z,81.85
2023-04-16T00:37:18.613Z,81.65
2023-04-16T00:39:45.344Z,82.09
2023-04-16T00:42:11.846Z,82.18
2023-04-16T00:44:38.322Z,82.40
2023-04-16T00:47:07.599Z,82.05
2023-04-16T00:49:35.529Z,81.53
2023-04-16T00:52:03.247Z,81.93
2023-04-16T00:54:31.594Z,81.82
2023-04-16T00:56:59.599Z,81.70
2023-04-16T00:59:26.779Z,81.61
2023-04-16T01:01:53.392Z,81.80
2023-04-16T01:04:20.225Z,81.72
2023-04-16T01:06:46.962Z,81.46
2023-04-16T01:09:14.144Z,81.46
2023-04-16T01:11:40.663Z,82.05
2023-04-16T01:14:07.345Z,82.68
2023-04-16T01:16:33.966Z,82.53
2023-04-16T01:19:00.467Z,83.05
2023-04-16T01:21:27.463Z,82.87
2023-04-16T01:23:53.978Z,82.41
2023-04-16T01:26:20.440Z,82.99
2023-04-16T01:28:46.900Z,82.51
2023-04-16T01:31:13.439Z,82.86
2023-04-16T01:34:06.452Z,82.03
2023-04-16T01:36:34.439Z,82.65
2023-04-16T01:39:00.891Z,82.64
2023-04-16T01:41:27.327Z,82.64
2023-04-16T01:43:53.754Z,82.91
2023-04-16T01:46:29.214Z,83.86
2023-04-16T01:48:56.436Z,83.82
2023-04-16T01:51:23.298Z,83.90
2023-04-16T01:53:51.117Z,83.69
2023-04-16T01:56:17.588Z,84.00
2023-04-16T01:58:46.045Z,83.91
2023-04-16T02:01:13.786Z,83.80
2023-04-16T02:03:41.138Z,83.95
2023-04-16T02:06:07.826Z,84.25
2023-04-16T02:08:35.667Z,84.01
2023-04-16T02:11:02.228Z,84.12
2023-04-16T02:13:28.997Z,84.61
2023-04-16T02:17:07.478Z,84.59
2023-04-16T02:19:37.091Z,84.25
2023-04-16T02:22:04.216Z,84.33
2023-04-16T02:24:30.740Z,83.98
2023-04-16T02:26:59.172Z,84.68
2023-04-16T02:29:26.004Z,84.88
2023-04-16T02:32:01.334Z,85.45
2023-04-16T02:34:29.525Z,85.50
2023-04-16T02:36:58.254Z,85.17
2023-04-16T02:39:25.090Z,84.58
2023-04-16T02:41:52.868Z,84.43
2023-04-16T02:44:19.797Z,84.39
2023-04-16T02:46:47.347Z,84.29
2023-04-16T02:49:14.000Z,84.15
2023-04-16T02:51:40.441Z,84.96
2023-04-16T02:54:06.926Z,85.15
2023-04-16T02:56:33.402Z,85.22
2023-04-16T02:58:59.890Z,85.44
2023-04-16T03:01:28.465Z,85.07
2023-04-16T03:03:55.114Z,85.30
2023-04-16T03:06:21.602Z,85.35
2023-04-16T03:08:48.117Z,85.70
2023-04-16T03:11:15.125Z,85.43
2023-04-16T03:13:41.601Z,85.75
2023-04-16T03:16:08.309Z,85.96
2023-04-16T03:18:34.797Z,86.24
2023-04-16T03:21:01.311Z,85.97
2023-04-16T03:23:28.406Z,85.81
2023-04-16T03:25:54.959Z,85.80
2023-04-16T03:28:21.471Z,86.23
2023-04-16T03:30:52.705Z,85.66
2023-04-16T03:33:20.619Z,86.10
2023-04-16T03:35:47.090Z,85.85
2023-04-16T03:38:14.342Z,86.16
2023-04-16T03:40:41.419Z,86.52
2023-04-16T03:43:07.861Z,86.34
2023-04-16T03:45:34.584Z,86.31
2023-04-16T03:48:01.143Z,86.75
2023-04-16T03:50:27.706Z,87.30
2023-04-16T03:52:54.486Z,86.57
2023-04-16T03:55:21.021Z,87.71
2023-04-16T03:57:47.966Z,87.10
2023-04-16T04:00:16.405Z,87.62
2023-04-16T04:02:55.954Z,87.29
2023-04-16T04:05:23.389Z,87.30
2023-04-16T04:07:50.137Z,87.92
2023-04-16T04:10:16.871Z,87.72
2023-04-16T04:12:43.884Z,87.85
2023-04-16T04:15:11.585Z,88.03
2023-04-16T04:17:38.153Z,87.77
2023-04-16T04:20:05.106Z,88.06
2023-04-16T04:22:31.593Z,88.05
2023-04-16T04:24:58.070Z,88.10
2023-04-16T04:27:27.146Z,88.97
2023-04-16T04:29:53.635Z,88.13
2023-04-16T04:32:21.417Z,88.57
2023-04-16T04:34:49.076Z,88.19
2023-04-16T04:37:15.564Z,88.47
2023-04-16T04:39:42.034Z,88.63
2023-04-16T04:42:09.345Z,88.69
2023-04-16T04:44:35.890Z,89.14
2023-04-16T04:47:02.346Z,88.97
2023-04-16T04:49:30.922Z,88.93
2023-04-16T04:51:57.409Z,88.90
2023-04-16T04:54:24.023Z,88.58
2023-04-16T04:56:52.496Z,88.21
2023-04-16T04:59:20.949Z,87.88
2023-04-16T05:01:47.654Z,86.91
2023-04-16T05:04:14.261Z,86.36
2023-04-16T05:06:40.974Z,86.46
2023-04-16T05:09:11.627Z,86.04
2023-04-16T05:11:39.126Z,85.85
2023-04-16T05:14:05.615Z,86.00
2023-04-16T05:16:32.151Z,85.62
2023-04-16T05:18:58.734Z,86.15
2023-04-16T05:21:26.455Z,86.51
2023-04-16T05:23:53.378Z,86.25
2023-04-16T05:26:19.978Z,85.96
2023-04-16T05:28:46.518Z,86.01
2023-04-16T05:31:13.019Z,85.88
2023-04-16T05:33:39.527Z,85.57
2023-04-16T05:36:06.414Z,85.57
2023-04-16T05:38:32.898Z,85.55
2023-04-16T05:40:59.454Z,85.54
2023-04-16T05:43:26.010Z,84.81
2023-04-16T05:45:52.484Z,84.46
2023-04-16T05:48:20.162Z,85.47
2023-04-16T05:50:46.679Z,85.00
2023-04-16T05:53:14.204Z,85.48
2023-04-16T05:55:40.758Z,85.05
2023-04-16T05:58:07.217Z,85.41
2023-04-16T06:00:33.771Z,85.32
2023-04-16T06:03:00.813Z,86.15
2023-04-16T06:05:27.648Z,86.15
2023-04-16T06:07:54.310Z,85.98
2023-04-16T06:10:20.913Z,85.73
2023-04-16T06:12:47.371Z,85.98
2023-04-16T06:15:13.910Z,86.02
2023-04-16T06:17:40.420Z,85.78
2023-04-16T06:20:07.508Z,85.94
2023-04-16T06:22:33.978Z,85.71
2023-04-16T06:25:00.924Z,85.34
2023-04-16T06:27:27.544Z,85.64
2023-04-16T06:29:53.977Z,85.25
2023-04-16T06:32:20.590Z,85.22
2023-04-16T06:34:47.077Z,85.22
2023-04-16T06:37:13.543Z,85.29
2023-04-16T06:39:40.009Z,84.88
2023-04-16T06:42:06.471Z,84.80
2023-04-16T06:44:33.086Z,84.60
2023-04-16T06:46:59.517Z,85.49
2023-04-16T06:49:25.985Z,84.94
2023-04-16T06:51:52.457Z,84.51
2023-04-16T06:54:19.786Z,84.57
2023-04-16T06:56:46.329Z,84.31
2023-04-16T06:59:12.787Z,83.64
2023-04-16T07:01:39.271Z,83.43
2023-04-16T07:04:05.921Z,84.11
2023-04-16T07:06:32.499Z,84.06
2023-04-16T07:08:58.982Z,84.11
2023-04-16T07:11:26.556Z,84.40
2023-04-16T07:13:53.876Z,85.31
2023-04-16T07:16:20.536Z,85.29
2023-04-16T07:18:47.151Z,85.03
2023-04-16T07:21:13.574Z,85.08
2023-04-16T07:23:40.035Z,85.25
2023-04-16T07:26:06.502Z,84.95
2023-04-16T07:28:32.940Z,85.24
2023-04-16T07:30:59.816Z,85.33
2023-04-16T07:33:26.593Z,85.46
2023-04-16T07:35:53.129Z,85.61
2023-04-16T07:38:19.567Z,85.67
2023-04-16T07:40:46.177Z,86.27
2023-04-16T07:43:14.026Z,85.59
2023-04-16T07:45:41.496Z,86.04
2023-04-16T07:48:08.132Z,86.05
2023-04-16T07:50:34.629Z,85.71
2023-04-16T07:53:01.289Z,85.22
2023-04-16T07:55:27.765Z,85.61
2023-04-16T07:57:54.229Z,86.04
2023-04-16T08:00:20.888Z,84.99
2023-04-16T08:02:47.554Z,85.29
2023-04-16T08:05:14.212Z,85.93
2023-04-16T08:07:40.907Z,85.24
2023-04-16T08:10:08.176Z,85.46
2023-04-16T08:12:36.152Z,85.52
2023-04-16T08:15:02.736Z,85.58
2023-04-16T08:17:30.053Z,84.68
2023-04-16T08:19:56.739Z,83.78
2023-04-16T08:22:23.187Z,83.99
2023-04-16T08:24:49.710Z,84.49
2023-04-16T08:27:19.589Z,84.36
2023-04-16T08:29:47.763Z,84.50
2023-04-16T08:32:14.197Z,83.92
2023-04-16T08:34:41.938Z,84.69
2023-04-16T08:37:08.543Z,83.63
2023-04-16T08:39:35.367Z,83.72
2023-04-16T08:42:05.145Z,84.13
2023-04-16T08:44:33.850Z,84.10
2023-04-16T08:47:02.224Z,83.97
2023-04-16T08:49:29.499Z,83.32
2023-04-16T08:51:56.960Z,84.31
2023-04-16T08:54:34.801Z,83.89
2023-04-16T08:57:06.345Z,83.84
2023-04-16T08:59:33.328Z,83.50
2023-04-16T09:02:00.737Z,82.79
2023-04-16T09:04:28.769Z,83.23
2023-04-16T09:06:57.368Z,83.54
2023-04-16T09:09:28.196Z,83.67
2023-04-16T09:11:54.765Z,83.61
2023-04-16T09:14:22.073Z,83.99
2023-04-16T09:16:49.518Z,83.33
2023-04-16T09:19:16.176Z,83.41
2023-04-16T09:21:45.559Z,83.35
2023-04-16T09:24:12.170Z,83.60
2023-04-16T09:26:38.807Z,82.94
2023-04-16T09:29:05.324Z,82.97
2023-04-16T09:31:31.882Z,83.59
2023-04-16T09:34:09.116Z,82.49
2023-04-16T09:36:36.648Z,82.65
2023-04-16T09:39:04.171Z,82.86
2023-04-16T09:41:32.664Z,84.18
2023-04-16T09:44:00.737Z,83.13
2023-04-16T09:46:30.210Z,82.25
2023-04-16T09:48:56.827Z,81.34
2023-04-16T09:51:23.442Z,80.90
2023-04-16T09:53:53.954Z,80.80
2023-04-16T09:56:25.921Z,80.61
2023-04-16T09:58:58.049Z,80.04
2023-04-16T10:01:24.959Z,80.15
2023-04-16T10:03:54.678Z,81.34
2023-04-16T10:06:23.669Z,80.75
2023-04-16T10:08:52.638Z,80.31
2023-04-16T10:11:21.170Z,80.97
2023-04-16T10:13:47.674Z,80.91
2023-04-16T10:16:14.173Z,80.25
2023-04-16T10:18:43.249Z,80.19
2023-04-16T10:21:12.963Z,80.79
2023-04-16T10:23:40.289Z,80.06
2023-04-16T10:26:06.991Z,80.19
2023-04-16T10:28:35.374Z,79.31
2023-04-16T10:31:05.157Z,79.39
2023-04-16T10:33:35.686Z,79.06
2023-04-16T10:36:12.344Z,79.17
2023-04-16T10:38:52.810Z,78.06
2023-04-16T10:41:22.632Z,78.74
2023-04-16T10:43:52.510Z,78.56
2023-04-16T10:46:33.840Z,78.76
2023-04-16T10:49:12.102Z,79.09
2023-04-16T10:51:38.562Z,78.92
2023-04-16T10:54:20.741Z,78.93
2023-04-16T10:56:47.812Z,79.52
2023-04-16T10:59:18.902Z,79.29
2023-04-16T11:01:52.176Z,79.73
2023-04-16T11:04:21.930Z,79.08
2023-04-16T11:07:00.964Z,79.08
2023-04-16T11:09:47.730Z,79.18
2023-04-16T11:12:15.427Z,80.04
2023-04-16T11:14:42.818Z,78.94
2023-04-16T11:17:10.157Z,80.16
2023-04-16T11:19:38.066Z,79.54
2023-04-16T11:22:04.886Z,80.98
2023-04-16T11:24:32.459Z,80.16
2023-04-16T11:26:59.097Z,78.06
2023-04-16T11:29:25.832Z,78.69
2023-04-16T11:31:53.612Z,78.80
2023-04-16T11:34:21.015Z,78.76
2023-04-16T11:36:50.585Z,78.74
2023-04-16T11:39:17.571Z,79.07
2023-04-16T11:41:48.499Z,79.98
2023-04-16T11:44:26.286Z,80.33
2023-04-16T11:46:54.257Z,80.56
2023-04-16T11:49:28.226Z,80.76
2023-04-16T11:51:55.328Z,81.46
2023-04-16T11:54:23.078Z,81.69
2023-04-16T11:56:53.115Z,81.97
2023-04-16T11:59:22.928Z,82.51
2023-04-16T12:01:55.605Z,82.95
2023-04-16T12:04:25.198Z,83.66
2023-04-16T12:07:11.725Z,83.46
2023-04-16T12:09:41.042Z,83.00
2023-04-16T12:12:30.495Z,83.64
2023-04-16T12:14:59.486Z,83.30
2023-04-16T12:17:26.147Z,82.37
2023-04-16T12:19:56.998Z,81.53
2023-04-16T12:22:31.697Z,82.57
2023-04-16T12:24:59.161Z,82.04
2023-04-16T12:27:28.652Z,82.25
2023-04-16T12:30:07.203Z,81.69
2023-04-16T12:32:33.772Z,80.80
2023-04-16T12:35:00.361Z,81.81
2023-04-16T12:37:27.277Z,79.00
2023-04-16T12:39:54.267Z,78.53
2023-04-16T12:42:21.347Z,78.65
2023-04-16T12:44:47.801Z,77.78
2023-04-16T12:47:14.251Z,77.39
2023-04-16T12:49:40.870Z,77.03
2023-04-16T12:52:07.352Z,77.02
2023-04-16T12:54:34.060Z,77.71
2023-04-16T12:57:00.571Z,77.33
2023-04-16T12:59:26.984Z,78.54
2023-04-16T13:01:53.521Z,78.94
2023-04-16T13:04:21.089Z,78.30
2023-04-16T13:06:49.153Z,79.16
2023-04-16T13:09:15.630Z,78.83
2023-04-16T13:11:42.110Z,79.58
2023-04-16T13:14:08.561Z,79.00
2023-04-16T13:16:35.031Z,79.57
2023-04-16T13:19:01.673Z,79.20
2023-04-16T13:21:28.233Z,79.78
2023-04-16T13:23:54.721Z,80.09
2023-04-16T13:26:22.041Z,80.16
2023-04-16T13:28:48.576Z,80.41
2023-04-16T13:31:15.976Z,79.70
2023-04-16T13:33:42.524Z,78.13
2023-04-16T13:36:09.014Z,77.82
2023-04-16T13:38:35.983Z,78.62
2023-04-16T13:41:02.525Z,77.59
2023-04-16T13:43:29.026Z,77.64
2023-04-16T13:45:55.872Z,78.28
2023-04-16T13:48:22.352Z,77.49
2023-04-16T13:50:48.825Z,78.16
2023-04-16T13:53:15.274Z,78.29
2023-04-16T13:55:42.650Z,78.21
2023-04-16T13:58:09.262Z,78.99
2023-04-16T14:00:35.976Z,79.70
2023-04-16T14:03:02.566Z,80.13
2023-04-16T14:05:29.045Z,80.33
2023-04-16T14:07:55.678Z,80.79
2023-04-16T14:10:22.161Z,80.91
2023-04-16T14:12:48.736Z,81.03
2023-04-16T14:15:15.227Z,80.76
2023-04-16T14:17:45.323Z,80.31
2023-04-16T14:20:12.933Z,80.81
2023-04-16T14:22:39.885Z,80.30
2023-04-16T14:25:07.173Z,80.73
2023-04-16T14:27:34.211Z,80.83
2023-04-16T14:30:00.967Z,80.08
2023-04-16T14:32:27.488Z,80.01
2023-04-16T14:34:54.121Z,79.68
2023-04-16T14:37:20.628Z,79.42
2023-04-16T14:39:47.138Z,79.02
2023-04-16T14:42:13.608Z,79.51
2023-04-16T14:44:40.059Z,80.25
2023-04-16T14:47:06.818Z,80.29
2023-04-16T14:49:33.371Z,80.60
2023-04-16T14:52:02.543Z,80.09
2023-04-16T14:54:29.121Z,79.89
2023-04-16T14:56:56.651Z,79.85
2023-04-16T14:59:23.088Z,80.38
2023-04-16T15:01:50.966Z,80.13
2023-04-16T15:04:17.785Z,80.50
2023-04-16T15:06:46.459Z,80.60
2023-04-16T15:09:13.229Z,80.55
2023-04-16T15:11:39.750Z,81.18
2023-04-16T15:14:06.892Z,81.46
2023-04-16T15:16:33.472Z,80.43
2023-04-16T15:19:00.055Z,80.36
2023-04-16T15:21:27.866Z,80.67
2023-04-16T15:23:54.323Z,80.65
2023-04-16T15:26:20.799Z,81.31
2023-04-16T15:28:47.266Z,80.76
2023-04-16T15:31:13.814Z,81.09
2023-04-16T15:33:40.482Z,80.12
2023-04-16T15:36:07.102Z,80.22
2023-04-16T15:38:33.538Z,80.46
2023-04-16T15:41:00.684Z,80.99
2023-04-16T15:43:28.949Z,80.31
2023-04-16T15:45:57.182Z,81.27
2023-04-16T15:48:24.400Z,81.46
2023-04-16T15:50:51.956Z,81.39
2023-04-16T15:53:18.481Z,81.83
2023-04-16T15:55:45.353Z,81.17
2023-04-16T15:58:12.952Z,81.13
2023-04-16T16:00:39.484Z,81.73
2023-04-16T16:03:06.150Z,81.58
2023-04-16T16:05:32.863Z,82.14
2023-04-16T16:07:59.614Z,81.93
2023-04-16T16:10:26.117Z,82.06
2023-04-16T16:12:52.727Z,81.97
2023-04-16T16:15:19.315Z,81.54
2023-04-16T16:17:45.853Z,81.92
2023-04-16T16:20:12.774Z,82.03
2023-04-16T16:22:40.165Z,82.32
2023-04-16T16:25:07.221Z,82.23
2023-04-16T16:27:33.748Z,82.74
2023-04-16T16:30:01.066Z,82.70
2023-04-16T16:32:27.608Z,81.96
2023-04-16T16:34:54.075Z,81.89
2023-04-16T16:37:20.716Z,82.24
2023-04-16T16:39:47.179Z,82.90
2023-04-16T16:42:16.599Z,82.86
2023-04-16T16:44:43.031Z,82.00
2023-04-16T16:47:09.862Z,82.71
2023-04-16T16:49:36.314Z,82.50
2023-04-16T16:52:02.759Z,81.98
2023-04-16T16:54:29.198Z,81.75
2023-04-16T16:56:56.662Z,81.70
2023-04-16T16:59:23.171Z,82.08
2023-04-16T17:01:49.705Z,81.50
2023-04-16T17:04:17.845Z,81.66
2023-04-16T17:06:46.724Z,81.21
2023-04-16T17:09:13.519Z,81.40
2023-04-16T17:11:40.356Z,81.51
2023-04-16T17:14:06.885Z,82.22
2023-04-16T17:16:33.503Z,81.86
2023-04-16T17:19:01.260Z,82.30
2023-04-16T17:21:27.902Z,82.91
2023-04-16T17:23:54.645Z,82.63
2023-04-16T17:26:21.189Z,82.54
2023-04-16T17:28:47.675Z,83.01
2023-04-16T17:31:15.444Z,82.62
2023-04-16T17:33:41.933Z,82.42
2023-04-16T17:36:08.455Z,83.01
2023-04-16T17:38:34.919Z,82.77
2023-04-16T17:41:01.378Z,82.69
2023-04-16T17:43:28.456Z,82.86
2023-04-16T17:45:55.012Z,83.46
2023-04-16T17:48:21.563Z,83.58
2023-04-16T17:50:48.558Z,83.55
2023-04-16T17:53:15.640Z,83.66
2023-04-16T17:55:50.665Z,84.20
2023-04-16T17:58:17.641Z,83.68
2023-04-16T18:00:45.774Z,84.38
2023-04-16T18:03:13.930Z,84.36
2023-04-16T18:05:41.328Z,84.36
2023-04-16T18:08:07.814Z,83.77
2023-04-16T18:10:34.316Z,83.81
2023-04-16T18:13:00.964Z,83.75
2023-04-16T18:15:27.576Z,84.26
2023-04-16T18:17:54.328Z,84.00
2023-04-16T18:20:21.163Z,84.27
2023-04-16T18:22:47.635Z,84.28
2023-04-16T18:25:14.476Z,84.03
2023-04-16T18:27:40.942Z,83.65
2023-04-16T18:30:07.998Z,83.61
2023-04-16T18:32:35.367Z,83.95
2023-04-16T18:35:01.934Z,83.84
2023-04-16T18:37:28.476Z,84.00
2023-04-16T18:39:57.392Z,83.69
2023-04-16T18:42:24.684Z,83.94
2023-04-16T18:44:55.099Z,83.71
2023-04-16T18:47:21.831Z,84.47
2023-04-16T18:49:48.279Z,84.24
2023-04-16T18:52:14.876Z,84.28
2023-04-16T18:54:41.480Z,84.23
2023-04-16T18:57:07.936Z,84.12
2023-04-16T18:59:34.400Z,84.47
2023-04-16T19:02:00.934Z,84.69
2023-04-16T19:04:27.510Z,84.46
2023-04-16T19:06:54.091Z,84.71
2023-04-16T19:09:20.653Z,84.69
2023-04-16T19:11:48.489Z,85.23
2023-04-16T19:14:14.954Z,85.06
2023-04-16T19:16:41.704Z,85.09
2023-04-16T19:19:08.338Z,84.94
2023-04-16T19:21:35.502Z,84.68
2023-04-16T19:24:01.978Z,85.01
2023-04-16T19:26:28.450Z,84.40
2023-04-16T19:28:54.968Z,84.82
2023-04-16T19:31:21.481Z,84.68
2023-04-16T19:33:48.015Z,84.94
2023-04-16T19:36:14.605Z,84.82
2023-04-16T19:38:41.144Z,84.46
2023-04-16T19:41:07.601Z,83.91
2023-04-16T19:43:35.377Z,84.07
2023-04-16T19:46:01.952Z,84.21
2023-04-16T19:48:28.761Z,84.39
2023-04-16T19:50:55.357Z,84.21
2023-04-16T19:53:21.942Z,84.04
2023-04-16T19:55:48.445Z,84.03
2023-04-16T19:58:15.032Z,84.20
2023-04-16T20:00:42.048Z,83.79
2023-04-16T20:03:08.916Z,84.31
2023-04-16T20:05:35.590Z,83.27
2023-04-16T20:08:02.099Z,84.40
2023-04-16T20:10:29.347Z,84.40
2023-04-16T20:12:55.942Z,84.54
2023-04-16T20:15:22.434Z,83.75
2023-04-16T20:17:49.489Z,84.04
2023-04-16T20:20:16.564Z,83.23
2023-04-16T20:22:43.719Z,83.44
2023-04-16T20:25:10.562Z,83.07
2023-04-16T20:27:37.179Z,82.99
2023-04-16T20:30:05.411Z,83.35
2023-04-16T20:32:31.900Z,83.43
2023-04-16T20:34:58.366Z,83.94
2023-04-16T20:37:24.865Z,83.29
2023-04-16T20:39:54.139Z,83.76
2023-04-16T20:42:21.962Z,83.65
2023-04-16T20:44:56.468Z,83.22
2023-04-16T20:47:23.713Z,83.29
2023-04-16T20:49:50.612Z,82.74
2023-04-16T20:52:17.124Z,82.55
2023-04-16T20:54:44.275Z,82.91
2023-04-16T20:57:10.805Z,83.02
2023-04-16T20:59:37.290Z,82.68
2023-04-16T21:02:04.031Z,82.93
2023-04-16T21:04:31.034Z,82.83
2023-04-16T21:06:57.627Z,82.98
2023-04-16T21:09:24.310Z,83.24
2023-04-16T21:11:50.774Z,83.60
2023-04-16T21:14:17.256Z,83.61
2023-04-16T21:16:43.810Z,84.06
2023-04-16T21:19:10.691Z,83.66
2023-04-16T21:21:38.256Z,83.72
2023-04-16T21:24:05.036Z,83.57
2023-04-16T21:26:31.517Z,83.43
2023-04-16T21:28:57.993Z,84.29
2023-04-16T21:31:24.614Z,83.63
2023-04-16T21:33:51.118Z,83.63
2023-04-16T21:36:17.566Z,83.52
2023-04-16T21:38:44.132Z,83.39
2023-04-16T21:41:10.824Z,83.62
2023-04-16T21:43:37.284Z,83.44
2023-04-16T21:46:03.893Z,83.42
2023-04-16T21:48:30.364Z,83.39
2023-04-16T21:51:06.314Z,83.54
2023-04-16T21:53:33.320Z,83.02
2023-04-16T21:55:59.832Z,83.61
2023-04-16T21:58:26.362Z,83.43
2023-04-16T22:00:52.943Z,83.58
2023-04-16T22:03:19.745Z,83.72
2023-04-16T22:05:46.331Z,83.63
2023-04-16T22:08:23.974Z,83.56
2023-04-16T22:10:51.385Z,83.65
2023-04-16T22:13:18.178Z,83.40
2023-04-16T22:15:44.659Z,83.42
2023-04-16T22:18:11.476Z,83.17
2023-04-16T22:20:39.236Z,82.84
2023-04-16T22:23:06.751Z,83.28
2023-04-16T22:25:33.473Z,82.77
2023-04-16T22:28:01.424Z,83.22
2023-04-16T22:30:27.942Z,83.01
2023-04-16T22:32:54.527Z,83.00
2023-04-16T22:35:21.052Z,83.20
2023-04-16T22:37:47.533Z,83.27
2023-04-16T22:40:14.843Z,82.87
2023-04-16T22:42:41.456Z,83.10
2023-04-16T22:45:08.820Z,83.19
2023-04-16T22:47:35.413Z,83.45
2023-04-16T22:50:01.946Z,82.87
2023-04-16T22:52:28.692Z,82.83
2023-04-16T22:54:55.180Z,83.16
2023-04-16T22:57:24.766Z,83.01
2023-04-16T22:59:52.361Z,83.04
2023-04-16T23:02:19.510Z,83.15
2023-04-16T23:04:49.034Z,83.14
2023-04-16T23:07:16.194Z,82.67
2023-04-16T23:09:42.669Z,83.49
2023-04-16T23:12:09.175Z,83.19
2023-04-16T23:14:36.858Z,83.17
2023-04-16T23:17:03.619Z,82.48
2023-04-16T23:19:31.179Z,82.17
2023-04-16T23:21:57.877Z,83.02
2023-04-16T23:24:24.434Z,83.53
2023-04-16T23:26:52.394Z,83.97
2023-04-16T23:29:20.250Z,84.21
2023-04-16T23:31:46.804Z,83.55
2023-04-16T23:34:13.348Z,83.75
2023-04-16T23:36:40.659Z,83.89
2023-04-16T23:39:07.149Z,83.72
2023-04-16T23:41:33.612Z,83.79
2023-04-16T23:44:00.122Z,84.55
2023-04-16T23:46:26.644Z,84.59
2023-04-16T23:48:55.223Z,84.55
2023-04-16T23:51:22.001Z,84.61
2023-04-16T23:53:48.476Z,85.09
2023-04-16T23:56:15.918Z,84.80
2023-04-16T23:58:42.364Z,84.67
